Hlavní strana
METAR-TAF:

METAR-TAF

Letiště :

Lancaster, Jižní Karolína, Spojené státy americké

zeměpisná šířka: 34-43-22N, zeměpisná délka: 080-51-17W, výška: 148 m

Aktuální stav počasí

Zpráva byla vytvořena před 21 minutami, v 06:15 UTC
Bezvětří
Teplota 19°C
Vlhkost vzduchu 100%
Tlak 1016 hPa
Viditelnost: 0.4 km
mlha

METAR: KLKR 280615Z AUTO 00000KT 1/4SM FG VV002 19/19 A3001 RMK AO2

Čas: 02:36 (06:36 UTC)


TAF: chybějící

Stav a předpovědi počasí z více než 4 000 letišť (zprávy METAR a TAF).

Červené a žluté tečky na mapě představují dostupné meteorologické stanice.

Když kurzor umístíte na tečku, zobrazí se název stanice.

Pak kliknutím zobrazíte stav a předpověď počasí.

Chcete-li změnit mapu, kliknutím na zelené tlačítko se znaménkem +mapu přiblížíte, kliknutím na zelené tlačítko se znaménkem – mapu oddálíte a kliknutím na zelené šipky přejdete na sousední mapy.


METAR-TAF: